createdAt,value
2023-11-17T00:02:26.620Z,9.57
2023-11-17T00:04:54.787Z,9.50
2023-11-17T00:07:25.349Z,9.23
2023-11-17T00:09:53.221Z,9.50
2023-11-17T00:12:21.181Z,10.15
2023-11-17T00:14:49.226Z,9.57
2023-11-17T00:17:18.515Z,9.45
2023-11-17T00:19:47.101Z,10.10
2023-11-17T00:22:15.852Z,10.00
2023-11-17T00:24:45.327Z,9.82
2023-11-17T00:27:13.512Z,9.77
2023-11-17T00:29:41.477Z,10.25
2023-11-17T00:32:09.391Z,10.32
2023-11-17T00:34:39.512Z,9.75
2023-11-17T00:37:08.804Z,9.73
2023-11-17T00:39:38.342Z,9.48
2023-11-17T00:42:09.237Z,9.68
2023-11-17T00:44:37.445Z,9.65
2023-11-17T00:47:06.656Z,9.20
2023-11-17T00:49:35.945Z,9.50
2023-11-17T00:52:06.675Z,9.70
2023-11-17T00:54:43.514Z,8.98
2023-11-17T00:57:12.725Z,9.90
2023-11-17T00:59:41.083Z,8.48
2023-11-17T01:02:12.763Z,9.00
2023-11-17T01:04:40.672Z,8.65
2023-11-17T01:07:10.173Z,8.90
2023-11-17T01:09:38.049Z,8.88
2023-11-17T01:12:06.579Z,8.50
2023-11-17T01:14:34.438Z,8.75
2023-11-17T01:17:02.386Z,8.38
2023-11-17T01:19:30.444Z,8.93
2023-11-17T01:22:00.965Z,8.68
2023-11-17T01:24:30.420Z,9.02
2023-11-17T01:26:58.431Z,8.13
2023-11-17T01:29:26.346Z,8.13
2023-11-17T01:31:54.919Z,8.63
2023-11-17T01:34:23.130Z,7.82
2023-11-17T01:36:53.160Z,9.00
2023-11-17T01:39:22.254Z,10.20
2023-11-17T01:41:52.243Z,9.02
2023-11-17T01:44:22.258Z,10.48
2023-11-17T01:46:52.378Z,9.32
2023-11-17T01:49:23.273Z,9.35
2023-11-17T01:51:52.857Z,10.85
2023-11-17T01:54:21.962Z,13.40
2023-11-17T01:56:54.253Z,12.95
2023-11-17T01:59:22.633Z,10.57
2023-11-17T02:01:52.088Z,10.43
2023-11-17T02:04:20.452Z,10.82
2023-11-17T02:06:57.029Z,11.02
2023-11-17T02:09:35.892Z,11.00
2023-11-17T02:12:15.883Z,11.30
2023-11-17T02:14:49.813Z,11.02
2023-11-17T02:17:26.734Z,10.93
2023-11-17T02:19:55.635Z,12.75
2023-11-17T02:22:31.552Z,12.00
2023-11-17T02:25:11.880Z,12.15
2023-11-17T02:27:51.586Z,12.75
2023-11-17T02:30:21.790Z,11.85
2023-11-17T02:32:51.578Z,11.32
2023-11-17T02:35:19.993Z,12.05
2023-11-17T02:37:51.659Z,11.48
2023-11-17T02:40:20.820Z,11.65
2023-11-17T02:42:50.475Z,10.85
2023-11-17T02:45:21.770Z,11.00
2023-11-17T02:47:53.456Z,11.13
2023-11-17T02:50:32.523Z,10.93
2023-11-17T02:53:18.340Z,10.73
2023-11-17T02:55:47.382Z,10.68
2023-11-17T02:58:16.896Z,10.45
2023-11-17T03:00:48.652Z,10.60
2023-11-17T03:03:16.737Z,9.43
2023-11-17T03:05:44.684Z,10.38
2023-11-17T03:08:14.417Z,10.10
2023-11-17T03:10:42.512Z,9.73
2023-11-17T03:13:17.394Z,9.75
2023-11-17T03:15:48.078Z,14.30
2023-11-17T03:18:16.093Z,20.20
2023-11-17T03:20:45.254Z,15.32
2023-11-17T03:23:13.209Z,15.68
2023-11-17T03:25:41.139Z,16.17
2023-11-17T03:28:14.376Z,10.48
2023-11-17T03:30:42.528Z,10.95
2023-11-17T03:33:13.016Z,9.95
2023-11-17T03:35:42.043Z,13.20
2023-11-17T03:38:14.846Z,14.05
2023-11-17T03:40:46.124Z,10.85
2023-11-17T03:43:15.505Z,10.68
2023-11-17T03:45:47.697Z,9.88
2023-11-17T03:48:17.064Z,9.77
2023-11-17T03:50:45.123Z,9.40
2023-11-17T03:53:13.150Z,10.10
2023-11-17T03:55:44.028Z,9.23
2023-11-17T03:58:12.161Z,9.48
2023-11-17T04:00:40.107Z,10.13
2023-11-17T04:03:10.091Z,10.27
2023-11-17T04:05:39.528Z,9.68
2023-11-17T04:08:07.507Z,10.23
2023-11-17T04:10:35.717Z,10.18
2023-11-17T04:13:03.662Z,10.20
2023-11-17T04:15:31.632Z,10.05
2023-11-17T04:17:59.588Z,9.90
2023-11-17T04:20:27.538Z,9.73
2023-11-17T04:22:57.125Z,9.70
2023-11-17T04:25:25.081Z,9.32
2023-11-17T04:27:53.040Z,9.75
2023-11-17T04:30:21.039Z,9.70
2023-11-17T04:32:48.987Z,9.40
2023-11-17T04:35:17.106Z,9.80
2023-11-17T04:37:44.941Z,9.68
2023-11-17T04:40:17.293Z,16.35
2023-11-17T04:42:45.239Z,11.88
2023-11-17T04:45:14.130Z,12.10
2023-11-17T04:47:42.931Z,10.52
2023-11-17T04:50:11.688Z,10.30
2023-11-17T04:52:39.679Z,9.63
2023-11-17T04:55:08.304Z,9.98
2023-11-17T04:57:38.331Z,11.18
2023-11-17T05:00:07.913Z,11.35
2023-11-17T05:02:35.997Z,13.50
2023-11-17T05:05:05.566Z,12.80
2023-11-17T05:07:33.655Z,12.80
2023-11-17T05:10:01.664Z,10.98
2023-11-17T05:12:29.628Z,11.65
2023-11-17T05:14:59.102Z,11.23
2023-11-17T05:17:30.784Z,11.55
2023-11-17T05:19:58.801Z,11.23
2023-11-17T05:22:26.724Z,11.35
2023-11-17T05:25:00.135Z,11.48
2023-11-17T05:27:28.128Z,11.32
2023-11-17T05:29:56.907Z,11.98
2023-11-17T05:32:27.254Z,13.57
2023-11-17T05:34:55.121Z,13.23
2023-11-17T05:37:23.937Z,13.65
2023-11-17T05:39:52.023Z,14.52
2023-11-17T05:42:19.957Z,13.95
2023-11-17T05:44:47.811Z,14.50
2023-11-17T05:47:15.748Z,15.32
2023-11-17T05:49:47.212Z,15.75
2023-11-17T05:52:17.107Z,15.88
2023-11-17T05:54:46.692Z,17.23
2023-11-17T05:57:15.087Z,17.13
2023-11-17T05:59:44.947Z,18.35
2023-11-17T06:02:15.751Z,18.38
2023-11-17T06:04:44.164Z,17.75
2023-11-17T06:07:13.523Z,19.52
2023-11-17T06:09:42.570Z,18.63
2023-11-17T06:12:11.428Z,19.13
2023-11-17T06:14:42.022Z,19.73
2023-11-17T06:17:10.725Z,18.77
2023-11-17T06:19:38.914Z,19.08
2023-11-17T06:22:10.147Z,18.85
2023-11-17T06:24:39.985Z,19.00
2023-11-17T06:27:11.872Z,17.88
2023-11-17T06:29:39.747Z,18.23
2023-11-17T06:32:09.299Z,18.10
2023-11-17T06:34:37.911Z,17.75
2023-11-17T06:37:06.384Z,17.80
2023-11-17T06:39:34.507Z,18.67
2023-11-17T06:42:07.692Z,19.05
2023-11-17T06:44:37.013Z,20.00
2023-11-17T06:47:07.595Z,20.40
2023-11-17T06:49:35.797Z,19.90
2023-11-17T06:52:08.545Z,19.35
2023-11-17T06:54:36.607Z,20.33
2023-11-17T06:57:08.094Z,19.13
2023-11-17T06:59:36.020Z,19.90
2023-11-17T07:02:04.736Z,19.27
2023-11-17T07:04:33.492Z,19.77
2023-11-17T07:07:01.958Z,20.73
2023-11-17T07:09:33.348Z,20.50
2023-11-17T07:12:03.098Z,20.55
2023-11-17T07:14:33.667Z,19.77
2023-11-17T07:17:05.774Z,21.25
2023-11-17T07:19:35.268Z,20.63
2023-11-17T07:22:03.745Z,21.63
2023-11-17T07:24:31.971Z,20.70
2023-11-17T07:27:02.523Z,19.23
2023-11-17T07:29:33.112Z,20.83
2023-11-17T07:32:01.253Z,19.52
2023-11-17T07:34:29.349Z,19.95
2023-11-17T07:36:57.341Z,21.13
2023-11-17T07:39:26.140Z,20.70
2023-11-17T07:41:54.109Z,20.15
2023-11-17T07:44:22.883Z,20.23
2023-11-17T07:46:52.393Z,20.08
2023-11-17T07:49:21.553Z,22.90
2023-11-17T07:51:50.176Z,25.17
2023-11-17T07:54:19.149Z,28.55
2023-11-17T07:56:48.162Z,29.38
2023-11-17T07:59:20.196Z,24.45
2023-11-17T08:01:48.475Z,23.58
2023-11-17T08:04:19.540Z,20.75
2023-11-17T08:06:47.961Z,22.92
2023-11-17T08:09:18.135Z,23.95
2023-11-17T08:11:46.471Z,22.60
2023-11-17T08:14:14.461Z,21.88
2023-11-17T08:16:42.613Z,22.00
2023-11-17T08:19:18.709Z,20.25
2023-11-17T08:21:55.887Z,21.88
2023-11-17T08:24:24.622Z,21.98
2023-11-17T08:26:53.236Z,20.58
2023-11-17T08:29:23.558Z,21.63
2023-11-17T08:31:53.185Z,21.20
2023-11-17T08:34:22.394Z,22.42
2023-11-17T08:36:51.155Z,21.30
2023-11-17T08:39:28.431Z,21.13
2023-11-17T08:41:57.479Z,21.52
2023-11-17T08:44:25.980Z,21.27
2023-11-17T08:46:53.997Z,20.90
2023-11-17T08:49:22.328Z,21.27
2023-11-17T08:51:50.452Z,21.27
2023-11-17T08:54:20.441Z,20.52
2023-11-17T08:56:49.555Z,20.70
2023-11-17T08:59:18.086Z,21.40
2023-11-17T09:01:46.553Z,20.88
2023-11-17T09:04:14.779Z,21.60
2023-11-17T09:06:42.761Z,20.17
2023-11-17T09:09:24.089Z,19.45
2023-11-17T09:12:01.746Z,19.30
2023-11-17T09:14:32.727Z,19.67
2023-11-17T09:17:04.169Z,20.65
2023-11-17T09:19:37.205Z,21.10
2023-11-17T09:22:06.111Z,19.02
2023-11-17T09:24:34.253Z,20.65
2023-11-17T09:27:05.085Z,20.30
2023-11-17T09:29:34.658Z,19.63
2023-11-17T09:32:02.863Z,19.48
2023-11-17T09:34:30.839Z,18.48
2023-11-17T09:36:59.108Z,19.15
2023-11-17T09:39:27.488Z,17.90
2023-11-17T09:41:57.900Z,19.35
2023-11-17T09:44:29.543Z,19.65
2023-11-17T09:47:09.232Z,19.52
2023-11-17T09:49:40.011Z,20.13
2023-11-17T09:52:09.041Z,18.00
2023-11-17T09:54:38.712Z,19.30
2023-11-17T09:57:10.191Z,19.20
2023-11-17T09:59:44.107Z,19.40
2023-11-17T10:02:15.322Z,19.58
2023-11-17T10:04:43.329Z,18.50
2023-11-17T10:07:13.011Z,19.33
2023-11-17T10:09:45.277Z,19.00
2023-11-17T10:12:16.041Z,19.25
2023-11-17T10:14:46.303Z,19.42
2023-11-17T10:17:19.095Z,19.02
2023-11-17T10:19:50.509Z,19.05
2023-11-17T10:22:18.483Z,19.35
2023-11-17T10:24:48.270Z,18.48
2023-11-17T10:27:19.133Z,18.70
2023-11-17T10:29:50.758Z,18.98
2023-11-17T10:32:36.937Z,19.75
2023-11-17T10:35:14.207Z,18.80
2023-11-17T10:37:42.166Z,17.88
2023-11-17T10:40:13.679Z,18.50
2023-11-17T10:42:41.845Z,18.05
2023-11-17T10:45:20.849Z,19.25
2023-11-17T10:47:49.125Z,19.75
2023-11-17T10:50:18.969Z,19.23
2023-11-17T10:52:47.692Z,18.70
2023-11-17T10:55:17.124Z,19.70
2023-11-17T10:58:05.459Z,19.83
2023-11-17T11:00:39.116Z,18.33
2023-11-17T11:03:11.302Z,20.23
2023-11-17T11:05:40.375Z,18.95
2023-11-17T11:08:12.576Z,18.45
2023-11-17T11:10:41.984Z,20.08
2023-11-17T11:13:09.987Z,19.35
2023-11-17T11:15:39.235Z,19.90
2023-11-17T11:18:07.762Z,19.48
2023-11-17T11:20:36.026Z,19.35
2023-11-17T11:23:04.564Z,18.42
2023-11-17T11:25:33.375Z,18.98
2023-11-17T11:28:04.392Z,20.27
2023-11-17T11:30:34.573Z,20.25
2023-11-17T11:33:04.105Z,18.60
2023-11-17T11:35:32.022Z,19.38
2023-11-17T11:38:00.072Z,18.45
2023-11-17T11:40:28.153Z,18.73
2023-11-17T11:42:56.007Z,18.15
2023-11-17T11:45:25.466Z,18.98
2023-11-17T11:47:58.657Z,18.95
2023-11-17T11:50:28.956Z,17.77
2023-11-17T11:53:18.586Z,17.42
2023-11-17T11:55:46.567Z,16.55
2023-11-17T11:58:14.501Z,17.52
2023-11-17T12:00:46.826Z,17.27
2023-11-17T12:03:15.891Z,17.27
2023-11-17T12:05:46.972Z,16.60
2023-11-17T12:08:28.693Z,16.10
2023-11-17T12:11:05.412Z,16.48
2023-11-17T12:13:44.732Z,17.23
2023-11-17T12:16:15.354Z,15.40
2023-11-17T12:18:47.592Z,15.05
2023-11-17T12:21:19.056Z,14.95
2023-11-17T12:23:56.151Z,14.30
2023-11-17T12:26:26.447Z,14.18
2023-11-17T12:28:55.562Z,13.68
2023-11-17T12:31:24.649Z,11.65
2023-11-17T12:33:55.119Z,11.70
2023-11-17T12:36:25.935Z,12.27
2023-11-17T12:38:55.388Z,12.25
2023-11-17T12:41:28.067Z,13.02
2023-11-17T12:43:57.819Z,12.15
2023-11-17T12:46:26.636Z,11.52
2023-11-17T12:48:54.860Z,12.52
2023-11-17T12:51:28.822Z,11.68
2023-11-17T12:53:58.045Z,11.00
2023-11-17T12:56:27.411Z,12.00
2023-11-17T12:58:56.234Z,11.27
2023-11-17T13:01:26.104Z,11.35
2023-11-17T13:03:57.437Z,10.63
2023-11-17T13:06:28.855Z,11.90
2023-11-17T13:08:57.010Z,11.00
2023-11-17T13:11:33.426Z,11.57
2023-11-17T13:14:02.587Z,10.63
2023-11-17T13:16:32.181Z,11.00
2023-11-17T13:19:01.838Z,9.85
2023-11-17T13:21:32.265Z,10.80
2023-11-17T13:24:00.677Z,9.60
2023-11-17T13:26:30.614Z,9.43
2023-11-17T13:28:59.004Z,9.55
2023-11-17T13:31:29.321Z,8.55
2023-11-17T13:33:58.951Z,8.52
2023-11-17T13:36:33.231Z,8.70
2023-11-17T13:39:16.748Z,10.45
2023-11-17T13:41:47.445Z,8.75
2023-11-17T13:44:28.427Z,10.55
2023-11-17T13:47:01.809Z,11.38
2023-11-17T13:49:35.624Z,13.85
2023-11-17T13:52:10.035Z,14.13
2023-11-17T13:54:42.153Z,13.70
2023-11-17T13:57:10.588Z,14.98
2023-11-17T13:59:38.678Z,14.63
2023-11-17T14:02:10.643Z,13.82
2023-11-17T14:04:39.400Z,14.65
2023-11-17T14:07:10.399Z,15.65
2023-11-17T14:09:41.297Z,13.80
2023-11-17T14:12:10.308Z,13.20
2023-11-17T14:14:42.239Z,13.50
2023-11-17T14:17:11.890Z,14.52
2023-11-17T14:19:39.967Z,13.60
2023-11-17T14:22:09.957Z,13.85
2023-11-17T14:24:41.744Z,15.07
2023-11-17T14:27:12.263Z,15.30
2023-11-17T14:29:44.297Z,14.80
2023-11-17T14:32:16.415Z,14.70
2023-11-17T14:34:46.009Z,16.65
2023-11-17T14:37:14.342Z,15.05
2023-11-17T14:39:43.826Z,13.63
2023-11-17T14:42:11.962Z,16.08
2023-11-17T14:44:40.372Z,14.73
2023-11-17T14:47:08.493Z,15.82
2023-11-17T14:49:36.623Z,14.02
2023-11-17T14:52:06.785Z,14.23
2023-11-17T14:54:34.800Z,13.55
2023-11-17T14:57:04.170Z,13.48
2023-11-17T14:59:32.137Z,12.93
2023-11-17T15:02:00.293Z,13.70
2023-11-17T15:04:30.384Z,12.38
2023-11-17T15:07:00.533Z,12.88
2023-11-17T15:09:28.518Z,13.20
2023-11-17T15:11:56.386Z,13.13
2023-11-17T15:14:27.861Z,13.20
2023-11-17T15:16:55.975Z,12.25
2023-11-17T15:19:27.083Z,13.00
2023-11-17T15:21:55.002Z,12.57
2023-11-17T15:24:25.346Z,12.95
2023-11-17T15:26:57.161Z,12.70
2023-11-17T15:29:31.292Z,13.00
2023-11-17T15:32:07.739Z,12.68
2023-11-17T15:34:36.117Z,11.80
2023-11-17T15:37:07.415Z,12.05
2023-11-17T15:39:35.392Z,11.57
2023-11-17T15:42:03.638Z,12.25
2023-11-17T15:44:33.375Z,11.40
2023-11-17T15:47:03.379Z,10.77
2023-11-17T15:49:31.443Z,11.05
2023-11-17T15:51:59.313Z,11.25
2023-11-17T15:54:27.334Z,11.15
2023-11-17T15:56:55.358Z,10.80
2023-11-17T15:59:23.302Z,12.18
2023-11-17T16:01:53.455Z,12.65
2023-11-17T16:04:23.014Z,12.32
2023-11-17T16:06:51.089Z,14.15
2023-11-17T16:09:22.785Z,12.57
2023-11-17T16:11:52.483Z,11.02
2023-11-17T16:14:20.941Z,11.20
2023-11-17T16:16:49.084Z,11.82
2023-11-17T16:19:20.551Z,12.75
2023-11-17T16:21:48.661Z,13.20
2023-11-17T16:24:17.805Z,13.80
2023-11-17T16:26:45.928Z,13.43
2023-11-17T16:29:13.991Z,14.38
2023-11-17T16:31:42.195Z,14.63
2023-11-17T16:34:12.189Z,14.65
2023-11-17T16:36:47.030Z,15.10
2023-11-17T16:39:20.221Z,14.63
2023-11-17T16:41:50.670Z,15.27
2023-11-17T16:44:18.749Z,15.75
2023-11-17T16:46:50.535Z,15.40
2023-11-17T16:49:20.390Z,15.50
2023-11-17T16:51:51.251Z,15.40
2023-11-17T16:54:19.390Z,14.73
2023-11-17T16:56:47.481Z,15.32
2023-11-17T16:59:15.566Z,17.20
2023-11-17T17:01:43.574Z,16.67
2023-11-17T17:04:11.035Z,16.15
2023-11-17T17:06:39.058Z,16.33
2023-11-17T17:09:10.009Z,17.75
2023-11-17T17:11:37.986Z,19.17
2023-11-17T17:14:16.954Z,24.98
2023-11-17T17:16:51.425Z,24.85
2023-11-17T17:19:22.278Z,23.55
2023-11-17T17:21:50.946Z,25.38
2023-11-17T17:24:20.247Z,21.42
2023-11-17T17:26:49.461Z,22.23
2023-11-17T17:29:17.680Z,21.45
2023-11-17T17:31:45.857Z,20.17
2023-11-17T17:34:17.023Z,21.98
2023-11-17T17:36:45.011Z,21.05
2023-11-17T17:39:17.801Z,21.30
2023-11-17T17:41:48.626Z,22.38
2023-11-17T17:44:17.393Z,23.98
2023-11-17T17:46:47.036Z,22.30
2023-11-17T17:49:17.781Z,22.35
2023-11-17T17:51:45.980Z,23.10
2023-11-17T17:54:15.439Z,24.20
2023-11-17T17:56:43.518Z,20.55
2023-11-17T17:59:14.342Z,21.85
2023-11-17T18:01:42.501Z,20.85
2023-11-17T18:04:10.614Z,19.67
2023-11-17T18:06:38.687Z,18.38
2023-11-17T18:09:10.887Z,19.75
2023-11-17T18:11:39.641Z,21.45
2023-11-17T18:14:07.727Z,19.98
2023-11-17T18:16:38.171Z,17.70
2023-11-17T18:19:07.797Z,19.88
2023-11-17T18:21:35.850Z,19.35
2023-11-17T18:24:03.960Z,18.58
2023-11-17T18:26:38.442Z,17.67
2023-11-17T18:29:13.292Z,17.90
2023-11-17T18:31:43.966Z,19.35
2023-11-17T18:34:12.348Z,19.35
2023-11-17T18:36:41.266Z,16.88
2023-11-17T18:39:12.473Z,18.83
2023-11-17T18:41:42.039Z,18.33
2023-11-17T18:44:10.204Z,18.70
2023-11-17T18:46:40.635Z,18.63
2023-11-17T18:49:11.114Z,19.63
2023-11-17T18:51:40.295Z,19.33
2023-11-17T18:54:08.469Z,21.67
2023-11-17T18:56:36.388Z,21.77
2023-11-17T18:59:04.657Z,20.85
2023-11-17T19:01:32.680Z,27.73
2023-11-17T19:04:00.855Z,24.88
2023-11-17T19:06:30.258Z,22.85
2023-11-17T19:08:58.244Z,23.45
2023-11-17T19:11:26.343Z,24.00
2023-11-17T19:13:54.332Z,22.52
2023-11-17T19:16:22.783Z,23.92
2023-11-17T19:18:50.894Z,22.58
2023-11-17T19:21:19.349Z,26.08
2023-11-17T19:23:48.684Z,20.15
2023-11-17T19:26:17.278Z,18.45
2023-11-17T19:28:45.543Z,19.65
2023-11-17T19:31:14.945Z,19.27
2023-11-17T19:33:43.011Z,18.92
2023-11-17T19:36:12.082Z,20.23
2023-11-17T19:38:40.036Z,22.35
2023-11-17T19:41:09.389Z,30.20
2023-11-17T19:43:39.482Z,22.75
2023-11-17T19:46:09.463Z,18.85
2023-11-17T19:48:37.402Z,18.38
2023-11-17T19:51:07.161Z,18.88
2023-11-17T19:53:35.107Z,17.75
2023-11-17T19:56:05.248Z,19.40
2023-11-17T19:58:34.672Z,21.95
2023-11-17T20:01:04.592Z,21.10
2023-11-17T20:03:32.654Z,20.73
2023-11-17T20:06:00.666Z,28.85
2023-11-17T20:08:28.556Z,21.13
2023-11-17T20:10:57.509Z,21.02
2023-11-17T20:13:26.086Z,21.25
2023-11-17T20:15:56.191Z,17.83
2023-11-17T20:18:27.892Z,26.35
2023-11-17T20:20:56.210Z,40.65
2023-11-17T20:23:24.185Z,32.13
2023-11-17T20:25:52.145Z,20.60
2023-11-17T20:28:21.332Z,35.67
2023-11-17T20:30:49.750Z,30.75
2023-11-17T20:33:19.376Z,26.50
2023-11-17T20:35:48.963Z,24.65
2023-11-17T20:38:16.901Z,24.52
2023-11-17T20:40:44.931Z,25.92
2023-11-17T20:43:14.852Z,24.88
2023-11-17T20:45:44.384Z,24.95
2023-11-17T20:48:12.453Z,20.65
2023-11-17T20:50:41.859Z,17.90
2023-11-17T20:53:10.569Z,16.67
2023-11-17T20:55:38.572Z,16.83
2023-11-17T20:58:08.541Z,15.85
2023-11-17T21:00:39.928Z,15.38
2023-11-17T21:03:08.604Z,15.25
2023-11-17T21:05:38.131Z,15.52
2023-11-17T21:08:11.714Z,14.88
2023-11-17T21:10:39.738Z,15.65
2023-11-17T21:13:09.041Z,17.30
2023-11-17T21:15:37.092Z,16.55
2023-11-17T21:18:05.382Z,16.13
2023-11-17T21:20:35.878Z,15.23
2023-11-17T21:23:04.376Z,14.80
2023-11-17T21:25:37.257Z,14.35
2023-11-17T21:28:06.751Z,15.07
2023-11-17T21:30:34.926Z,16.05
2023-11-17T21:33:02.842Z,14.80
2023-11-17T21:35:32.432Z,14.88
2023-11-17T21:38:00.476Z,15.75
2023-11-17T21:40:28.980Z,15.57
2023-11-17T21:42:58.361Z,15.82
2023-11-17T21:45:26.284Z,15.23
2023-11-17T21:47:56.211Z,15.65
2023-11-17T21:50:26.482Z,13.52
2023-11-17T21:52:56.557Z,15.13
2023-11-17T21:55:24.766Z,14.70
2023-11-17T21:57:55.743Z,14.52
2023-11-17T22:00:28.665Z,15.65
2023-11-17T22:02:57.103Z,14.13
2023-11-17T22:05:25.418Z,15.05
2023-11-17T22:07:53.444Z,15.55
2023-11-17T22:10:21.682Z,15.50
2023-11-17T22:12:50.494Z,14.20
2023-11-17T22:15:20.119Z,13.23
2023-11-17T22:17:50.486Z,14.48
2023-11-17T22:20:20.094Z,14.93
2023-11-17T22:22:50.045Z,14.82
2023-11-17T22:25:20.109Z,15.48
2023-11-17T22:27:48.860Z,15.50
2023-11-17T22:30:23.340Z,16.08
2023-11-17T22:32:56.864Z,15.70
2023-11-17T22:35:26.167Z,15.77
2023-11-17T22:37:55.693Z,13.02
2023-11-17T22:40:25.117Z,15.80
2023-11-17T22:42:53.865Z,16.38
2023-11-17T22:45:23.062Z,15.13
2023-11-17T22:47:52.053Z,16.60
2023-11-17T22:50:23.000Z,16.88
2023-11-17T22:52:52.985Z,15.10
2023-11-17T22:55:22.202Z,16.73
2023-11-17T22:57:50.665Z,13.70
2023-11-17T23:00:36.145Z,12.90
2023-11-17T23:05:34.980Z,10.25
2023-11-17T23:08:03.679Z,12.27
2023-11-17T23:10:33.653Z,13.23
2023-11-17T23:13:02.927Z,12.52
2023-11-17T23:15:31.348Z,14.30
2023-11-17T23:17:59.829Z,13.10
2023-11-17T23:20:28.423Z,14.52
2023-11-17T23:22:58.381Z,15.93
2023-11-17T23:25:29.734Z,12.98
2023-11-17T23:27:58.316Z,10.27
2023-11-17T23:30:26.295Z,10.65
2023-11-17T23:32:54.637Z,13.65
2023-11-17T23:35:22.637Z,12.20
2023-11-17T23:37:50.649Z,15.48
2023-11-17T23:40:20.927Z,16.42
2023-11-17T23:42:49.738Z,13.93
2023-11-17T23:45:18.751Z,14.20
2023-11-17T23:47:47.206Z,15.32
2023-11-17T23:50:15.252Z,15.15
2023-11-17T23:52:43.365Z,14.48
2023-11-17T23:55:17.250Z,15.95
2023-11-17T23:57:46.602Z,15.63
